Time;durP1;ratioP1;P1;durP2;ratioP2;P2;SDS_P1;SDS_P2;PMS_P1;PMS_P2;Temp;Humidity;BMP_temperature;BMP_pressure;BME280_temperature;BME280_humidity;BME280_pressure;Samples;Min_cycle;Max_cycle;Signal;HPM_P1;HPM_P2
2022/01/26 00:06:42;;;;;;;0.80;0.70;;;4.60;99.90;;;;;;4968692;28;20453;-88
2022/01/26 00:09:09;;;;;;;0.80;0.70;;;4.60;99.90;;;;;;4970889;28;20848;-88
2022/01/26 00:11:36;;;;;;;0.80;0.70;;;4.70;99.90;;;;;;4973314;28;20457;-88
2022/01/26 00:14:04;;;;;;;0.83;0.83;;;4.70;99.90;;;;;;4955171;28;20441;-88
2022/01/26 00:16:39;;;;;;;0.80;0.80;;;4.70;99.90;;;;;;4965096;28;20442;-87
2022/01/26 00:19:07;;;;;;;0.80;0.70;;;4.70;99.90;;;;;;4968965;28;20452;-88
2022/01/26 00:21:37;;;;;;;0.80;0.70;;;4.70;99.90;;;;;;4970377;28;20431;-87
2022/01/26 00:24:21;;;;;;;2.60;2.40;;;4.70;99.90;;;;;;4973381;28;20785;-88
2022/01/26 00:29:24;;;;;;;0.80;0.67;;;4.70;99.90;;;;;;4965352;28;20462;-88
2022/01/26 00:40:41;;;;;;;0.90;0.90;;;4.70;99.90;;;;;;4971883;28;20448;-88
2022/01/26 00:43:19;;;;;;;0.70;0.60;;;4.70;99.90;;;;;;4973112;28;20429;-87
2022/01/26 00:45:45;;;;;;;0.80;0.70;;;4.70;99.90;;;;;;4973567;28;20445;-88
2022/01/26 00:48:11;;;;;;;0.80;0.80;;;4.70;99.90;;;;;;4979433;28;20488;-87
2022/01/26 00:50:39;;;;;;;5.03;1.50;;;4.70;99.90;;;;;;4949281;28;20270;-88
2022/01/26 00:53:06;;;;;;;0.80;0.70;;;4.70;99.90;;;;;;4965054;28;20440;-88
2022/01/26 00:55:33;;;;;;;0.80;0.70;;;4.70;99.90;;;;;;4971633;28;20476;-88
2022/01/26 00:57:59;;;;;;;0.80;0.70;;;4.70;99.90;;;;;;4981328;28;20499;-88
2022/01/26 01:00:26;;;;;;;0.80;0.70;;;4.70;99.90;;;;;;4972873;28;20437;-88
2022/01/26 01:02:54;;;;;;;0.80;0.70;;;4.70;99.90;;;;;;4972723;28;20197;-88
2022/01/26 01:05:24;;;;;;;0.80;0.70;;;4.80;99.90;;;;;;4973001;28;20455;-88
2022/01/26 01:07:52;;;;;;;1.00;0.90;;;4.70;99.90;;;;;;4982138;28;20495;-88
2022/01/26 01:10:21;;;;;;;0.80;0.80;;;4.70;99.90;;;;;;4972361;28;20441;-88
2022/01/26 01:12:49;;;;;;;0.80;0.80;;;4.70;99.90;;;;;;4973921;28;20456;-88
2022/01/26 01:15:15;;;;;;;0.80;0.70;;;4.70;99.90;;;;;;4971787;28;20445;-87
2022/01/26 01:17:47;;;;;;;0.80;0.70;;;4.70;99.90;;;;;;4967280;28;20824;-88
2022/01/26 01:23:07;;;;;;;0.80;0.70;;;4.70;99.90;;;;;;4972254;28;20453;-88
2022/01/26 01:26:05;;;;;;;0.80;0.70;;;4.70;99.90;;;;;;4972036;28;20421;-88
2022/01/26 01:28:46;;;;;;;0.80;0.70;;;4.70;99.90;;;;;;4971948;28;20497;-88
2022/01/26 01:31:13;;;;;;;0.80;0.70;;;4.70;99.90;;;;;;4963063;28;20481;-88
2022/01/26 01:33:43;;;;;;;0.83;0.80;;;4.70;99.90;;;;;;4974899;28;20437;-88
2022/01/26 01:36:11;;;;;;;0.80;0.63;;;4.80;99.90;;;;;;4957892;28;21025;-88
2022/01/26 01:38:40;;;;;;;1.87;1.20;;;4.80;99.90;;;;;;4970667;28;20516;-88
2022/01/26 01:41:05;;;;;;;0.80;0.63;;;4.70;99.90;;;;;;4971531;28;20437;-88
2022/01/26 01:43:31;;;;;;;1.20;1.10;;;4.70;99.90;;;;;;4976756;28;20902;-89
2022/01/26 01:45:57;;;;;;;0.80;0.80;;;4.70;99.90;;;;;;4970416;28;20269;-88
2022/01/26 01:48:28;;;;;;;1.10;1.00;;;4.70;99.90;;;;;;4968413;28;20547;-88
2022/01/26 01:50:56;;;;;;;2.23;1.13;;;4.70;99.90;;;;;;4963818;28;20194;-88
2022/01/26 01:53:31;;;;;;;0.80;0.80;;;4.60;99.90;;;;;;4973406;28;20455;-88
2022/01/26 01:55:58;;;;;;;0.80;0.70;;;4.70;99.90;;;;;;4963396;28;20810;-88
2022/01/26 01:58:24;;;;;;;0.80;0.80;;;4.70;99.90;;;;;;4963438;28;20586;-88
2022/01/26 02:00:50;;;;;;;0.80;0.70;;;4.70;99.90;;;;;;4970181;28;20441;-88
2022/01/26 02:03:15;;;;;;;0.80;0.70;;;4.70;99.90;;;;;;4967314;28;20219;-88
2022/01/26 02:05:41;;;;;;;1.23;1.13;;;4.70;99.90;;;;;;4954088;28;20244;-89
2022/01/26 02:08:06;;;;;;;0.90;0.90;;;4.70;99.90;;;;;;4971399;28;20221;-87
2022/01/26 02:10:33;;;;;;;0.80;0.70;;;4.70;99.90;;;;;;4971012;28;20186;-88
2022/01/26 02:13:02;;;;;;;0.80;0.70;;;4.70;99.90;;;;;;4975394;28;20181;-88
2022/01/26 02:15:58;;;;;;;0.80;0.70;;;4.70;99.90;;;;;;4977356;28;20425;-88
2022/01/26 02:21:02;;;;;;;0.83;0.83;;;4.60;99.90;;;;;;4963038;28;20585;-88
2022/01/26 02:51:29;;;;;;;0.80;0.70;;;4.60;99.90;;;;;;4959358;28;20499;-88
2022/01/26 02:54:19;;;;;;;1.80;1.70;;;4.60;99.90;;;;;;4969975;28;20965;-88
2022/01/26 02:59:47;;;;;;;0.73;0.60;;;4.50;99.90;;;;;;4971194;28;20464;-88
2022/01/26 03:02:21;;;;;;;0.80;0.70;;;4.60;99.90;;;;;;4970975;28;20525;-88
2022/01/26 03:04:50;;;;;;;0.80;0.70;;;4.50;99.90;;;;;;4966903;28;20484;-88
2022/01/26 03:09:47;;;;;;;0.80;0.70;;;4.60;99.90;;;;;;4967876;28;20456;-89
2022/01/26 03:12:20;;;;;;;1.30;1.20;;;4.50;99.90;;;;;;4970922;28;20182;-88
2022/01/26 03:17:32;;;;;;;0.80;0.70;;;4.50;99.90;;;;;;4975515;28;20876;-87
2022/01/26 03:20:03;;;;;;;0.80;0.70;;;4.50;99.90;;;;;;4973793;28;20234;-88
2022/01/26 03:28:18;;;;;;;0.80;0.70;;;4.50;99.90;;;;;;4967766;28;21032;-88
2022/01/26 03:35:57;;;;;;;0.80;0.70;;;4.50;99.90;;;;;;4970559;28;20459;-88
2022/01/26 03:38:38;;;;;;;0.90;0.90;;;4.50;99.90;;;;;;4974198;28;20425;-88
2022/01/26 03:41:33;;;;;;;0.80;0.80;;;4.50;99.90;;;;;;4974420;28;20429;-88
2022/01/26 03:43:59;;;;;;;0.80;0.70;;;4.60;99.90;;;;;;4971594;28;20445;-88
2022/01/26 03:46:25;;;;;;;0.80;0.80;;;4.50;99.90;;;;;;4964009;28;20438;-88
2022/01/26 03:48:51;;;;;;;0.80;0.70;;;4.50;99.90;;;;;;4973619;28;20489;-88
2022/01/26 03:51:16;;;;;;;0.80;0.70;;;4.50;99.90;;;;;;4972924;28;20193;-88
2022/01/26 03:53:42;;;;;;;0.80;0.70;;;4.50;99.90;;;;;;4982922;28;20451;-89
2022/01/26 03:56:07;;;;;;;0.80;0.70;;;4.50;99.90;;;;;;4968675;28;20704;-88
2022/01/26 03:58:33;;;;;;;1.20;1.10;;;4.60;99.90;;;;;;4970348;28;20343;-88
2022/01/26 04:00:58;;;;;;;0.80;0.70;;;4.60;99.90;;;;;;4966379;28;20185;-88
2022/01/26 04:03:24;;;;;;;0.80;0.80;;;4.60;99.90;;;;;;4962736;28;20192;-87
2022/01/26 04:05:49;;;;;;;1.73;1.63;;;4.60;99.90;;;;;;4980988;28;20197;-88
2022/01/26 04:08:21;;;;;;;0.80;0.70;;;4.50;99.90;;;;;;4976838;28;20230;-88
2022/01/26 04:13:31;;;;;;;0.90;0.90;;;4.50;99.90;;;;;;4981681;28;20523;-88
2022/01/26 04:15:56;;;;;;;8.20;2.30;;;4.60;99.90;;;;;;4973324;28;20441;-88
2022/01/26 04:18:29;;;;;;;3.53;2.50;;;4.60;99.90;;;;;;4970789;28;20189;-88
2022/01/26 04:20:58;;;;;;;1.40;1.10;;;4.60;99.90;;;;;;4971490;28;20213;-89
2022/01/26 04:23:36;;;;;;;0.80;0.80;;;4.50;99.90;;;;;;4982848;28;20482;-88
2022/01/26 04:26:02;;;;;;;0.80;0.70;;;4.60;99.90;;;;;;4972579;28;20436;-88
2022/01/26 04:28:35;;;;;;;0.80;0.80;;;4.60;99.90;;;;;;4973135;28;20484;-88
2022/01/26 04:31:00;;;;;;;0.93;0.93;;;4.60;99.90;;;;;;4957889;28;20219;-88
2022/01/26 04:33:26;;;;;;;0.80;0.70;;;4.50;99.90;;;;;;4959992;28;20504;-88
2022/01/26 04:35:52;;;;;;;0.83;0.83;;;4.50;99.90;;;;;;4935963;29;20187;-88
2022/01/26 04:38:31;;;;;;;2.03;1.20;;;4.50;99.90;;;;;;4953271;28;20455;-88
2022/01/26 04:41:10;;;;;;;2.63;2.43;;;4.50;99.90;;;;;;4952668;28;20194;-88
2022/01/26 04:43:39;;;;;;;0.80;0.70;;;4.60;99.90;;;;;;4956446;28;21033;-88
2022/01/26 04:46:06;;;;;;;0.80;0.70;;;4.60;99.90;;;;;;4952998;28;20505;-88
2022/01/26 04:48:32;;;;;;;1.20;1.10;;;4.50;99.90;;;;;;4946178;28;20479;-89
2022/01/26 04:50:57;;;;;;;0.80;0.80;;;4.50;99.90;;;;;;4952348;28;20449;-89
2022/01/26 04:53:23;;;;;;;0.90;0.90;;;4.50;99.90;;;;;;4954385;28;20223;-89
2022/01/26 04:55:48;;;;;;;2.73;2.63;;;4.50;99.90;;;;;;4932575;29;20717;-89
2022/01/26 04:58:14;;;;;;;0.80;0.80;;;4.50;99.90;;;;;;4953834;29;20229;-89
2022/01/26 05:00:40;;;;;;;1.73;1.63;;;4.50;99.90;;;;;;4953759;29;20257;-88
2022/01/26 05:03:05;;;;;;;0.80;0.70;;;4.50;99.90;;;;;;4952427;28;20202;-88
2022/01/26 05:05:31;;;;;;;0.80;0.70;;;4.50;99.90;;;;;;4946096;28;20197;-88
2022/01/26 05:07:56;;;;;;;0.80;0.80;;;4.50;99.90;;;;;;4953230;29;20221;-88
2022/01/26 05:10:22;;;;;;;1.23;1.13;;;4.50;99.90;;;;;;4953407;29;20197;-88
2022/01/26 05:12:48;;;;;;;1.63;1.53;;;4.50;99.90;;;;;;4940553;28;20198;-88
2022/01/26 05:15:14;;;;;;;0.80;0.70;;;4.50;99.90;;;;;;4953370;29;20313;-88
2022/01/26 05:17:41;;;;;;;1.93;1.83;;;4.50;99.90;;;;;;4953303;29;20193;-88
2022/01/26 05:20:09;;;;;;;0.80;0.70;;;4.50;99.90;;;;;;4939570;28;20198;-88
2022/01/26 05:22:35;;;;;;;1.30;1.10;;;4.50;99.90;;;;;;4948374;28;20488;-89
2022/01/26 05:25:01;;;;;;;0.90;0.90;;;4.50;99.90;;;;;;4953492;28;20446;-88
2022/01/26 05:27:26;;;;;;;0.80;0.70;;;4.40;99.90;;;;;;4952929;28;20504;-88
2022/01/26 05:29:52;;;;;;;0.80;0.60;;;4.40;99.90;;;;;;4961091;28;20612;-88
2022/01/26 05:32:19;;;;;;;1.53;1.47;;;4.40;99.90;;;;;;4971859;28;20655;-88
2022/01/26 05:34:45;;;;;;;2.50;2.30;;;4.40;99.90;;;;;;4961559;28;20831;-88
2022/01/26 05:37:10;;;;;;;2.13;1.73;;;4.40;99.90;;;;;;4967805;28;20449;-88
2022/01/26 05:39:38;;;;;;;0.80;0.70;;;4.40;99.90;;;;;;4968418;28;20205;-88
2022/01/26 05:42:05;;;;;;;2.13;1.10;;;4.40;99.90;;;;;;4956435;28;20194;-88
2022/01/26 05:44:30;;;;;;;1.03;0.93;;;4.40;99.90;;;;;;4975144;28;20467;-89
2022/01/26 05:46:56;;;;;;;1.57;1.47;;;4.40;99.90;;;;;;4980983;28;20476;-89
2022/01/26 05:49:21;;;;;;;0.80;0.77;;;4.40;99.90;;;;;;4973299;28;20273;-89
2022/01/26 05:51:47;;;;;;;8.10;1.57;;;4.40;99.90;;;;;;4967315;28;20201;-88
2022/01/26 05:54:15;;;;;;;1.20;1.10;;;4.40;99.90;;;;;;4966109;28;20320;-89
2022/01/26 05:56:42;;;;;;;1.10;1.00;;;4.40;99.90;;;;;;4969443;28;20611;-88
2022/01/26 05:59:08;;;;;;;7.30;2.23;;;4.40;99.90;;;;;;4971063;28;20964;-88
2022/01/26 06:01:34;;;;;;;0.80;0.70;;;4.40;99.90;;;;;;4964217;28;20444;-88
2022/01/26 06:04:00;;;;;;;1.10;1.00;;;4.40;99.90;;;;;;4955733;28;20452;-88
2022/01/26 06:06:25;;;;;;;2.30;2.00;;;4.40;99.90;;;;;;4970894;28;20193;-89
2022/01/26 06:08:51;;;;;;;0.80;0.70;;;4.40;99.90;;;;;;4965799;28;20222;-88
2022/01/26 06:11:16;;;;;;;0.80;0.70;;;4.50;99.90;;;;;;4966649;28;20630;-88
2022/01/26 06:13:42;;;;;;;2.07;1.43;;;4.40;99.90;;;;;;4972867;28;20193;-88
2022/01/26 06:16:07;;;;;;;0.80;0.80;;;4.40;99.90;;;;;;4969520;28;20200;-88
2022/01/26 06:18:33;;;;;;;0.80;0.77;;;4.40;99.90;;;;;;4963136;28;20680;-87
2022/01/26 06:20:58;;;;;;;0.80;0.80;;;4.40;99.90;;;;;;4951503;28;20317;-88
2022/01/26 06:23:24;;;;;;;0.80;0.80;;;4.40;99.90;;;;;;4958698;28;20281;-84
2022/01/26 06:25:54;;;;;;;0.80;0.70;;;4.40;99.90;;;;;;4966904;28;20718;-86
2022/01/26 06:28:21;;;;;;;0.80;0.80;;;4.30;99.90;;;;;;4969339;28;21139;-87
2022/01/26 06:30:49;;;;;;;1.93;1.83;;;4.30;99.90;;;;;;4968531;28;20520;-87
2022/01/26 06:33:15;;;;;;;2.07;1.10;;;4.30;99.90;;;;;;4958502;28;20445;-87
2022/01/26 06:35:41;;;;;;;0.80;0.73;;;4.30;99.90;;;;;;4949330;28;20453;-86
2022/01/26 06:38:07;;;;;;;0.80;0.80;;;4.30;99.90;;;;;;4957820;28;20651;-86
2022/01/26 06:40:33;;;;;;;1.83;1.73;;;4.30;99.90;;;;;;4964902;28;20540;-86
2022/01/26 06:43:06;;;;;;;2.07;1.87;;;4.30;99.90;;;;;;4953980;28;20461;-86
2022/01/26 06:45:35;;;;;;;2.03;1.90;;;4.30;99.90;;;;;;4970701;28;20434;-86
2022/01/26 06:50:45;;;;;;;0.80;0.80;;;4.30;99.90;;;;;;4972660;28;20986;-87
2022/01/26 06:53:13;;;;;;;2.17;1.90;;;4.30;99.90;;;;;;4956272;28;20445;-87
2022/01/26 06:55:39;;;;;;;1.63;1.53;;;4.30;99.90;;;;;;4953660;28;20288;-87
2022/01/26 06:58:04;;;;;;;1.57;1.47;;;4.30;99.90;;;;;;4956237;28;20461;-87
2022/01/26 07:00:30;;;;;;;1.30;1.20;;;4.30;99.90;;;;;;4960520;28;20186;-86
2022/01/26 07:02:56;;;;;;;2.30;1.20;;;4.30;99.90;;;;;;4953436;28;20200;-87
2022/01/26 07:05:22;;;;;;;2.20;2.03;;;4.30;99.90;;;;;;4966225;28;20441;-86
2022/01/26 07:07:48;;;;;;;4.57;1.63;;;4.30;99.90;;;;;;4969593;28;20753;-88
2022/01/26 07:10:14;;;;;;;1.70;1.60;;;4.30;99.90;;;;;;4968779;28;20958;-86
2022/01/26 07:12:39;;;;;;;0.80;0.80;;;4.30;99.90;;;;;;4975969;28;20443;-87
2022/01/26 07:23:18;;;;;;;1.47;1.37;;;4.20;99.90;;;;;;4969644;28;20491;-85
2022/01/26 07:25:44;;;;;;;0.90;0.90;;;4.20;99.90;;;;;;4961792;28;20536;-87
2022/01/26 07:28:10;;;;;;;0.80;0.70;;;4.10;99.90;;;;;;4968635;28;20700;-85
2022/01/26 07:30:35;;;;;;;1.83;1.73;;;4.10;99.90;;;;;;4969088;28;20237;-86
2022/01/26 07:33:02;;;;;;;1.10;1.00;;;4.10;99.90;;;;;;4956347;28;20298;-86
2022/01/26 07:35:29;;;;;;;1.20;1.10;;;4.10;99.90;;;;;;4948206;28;20194;-86
2022/01/26 07:37:58;;;;;;;0.73;0.70;;;4.10;99.90;;;;;;4969001;28;20445;-86
2022/01/26 07:40:24;;;;;;;2.13;2.03;;;4.20;99.90;;;;;;4969207;28;21131;-88
2022/01/26 07:42:50;;;;;;;0.80;0.70;;;4.10;99.90;;;;;;4970120;28;21230;-87
2022/01/26 07:45:16;;;;;;;0.80;0.80;;;4.20;99.90;;;;;;4970503;28;20531;-88
2022/01/26 07:47:42;;;;;;;1.20;1.10;;;4.10;99.90;;;;;;4947768;28;20213;-87
2022/01/26 07:50:12;;;;;;;1.37;1.27;;;4.20;99.90;;;;;;4945694;28;20468;-87
2022/01/26 07:52:40;;;;;;;2.60;1.83;;;4.10;99.90;;;;;;4957462;28;20726;-88
2022/01/26 07:55:08;;;;;;;2.43;2.33;;;4.10;99.90;;;;;;4966529;28;20449;-87
2022/01/26 07:57:34;;;;;;;2.83;1.17;;;4.20;99.90;;;;;;4968377;28;20448;-88
2022/01/26 07:59:59;;;;;;;1.77;1.67;;;4.20;99.90;;;;;;4949590;28;20460;-89
2022/01/26 08:02:25;;;;;;;1.63;1.53;;;4.20;99.90;;;;;;4966920;28;20201;-89
2022/01/26 08:04:50;;;;;;;0.90;0.90;;;4.10;99.90;;;;;;4954810;28;20190;-86
2022/01/26 08:07:16;;;;;;;2.30;2.10;;;4.20;99.90;;;;;;4953820;28;20252;-89
2022/01/26 08:09:45;;;;;;;1.07;1.03;;;4.10;99.90;;;;;;4971424;28;20329;-89
2022/01/26 08:12:11;;;;;;;1.20;1.10;;;4.10;99.90;;;;;;4972277;28;20228;-90
2022/01/26 08:14:37;;;;;;;0.73;0.70;;;4.10;99.90;;;;;;4966360;28;20452;-90
2022/01/26 08:17:05;;;;;;;0.80;0.77;;;4.10;99.90;;;;;;4974484;28;20440;-88
2022/01/26 08:19:30;;;;;;;1.67;1.57;;;4.00;99.90;;;;;;4972364;28;20185;-89
2022/01/26 08:22:00;;;;;;;0.80;0.80;;;4.00;99.90;;;;;;4965164;28;20452;-95
2022/01/26 08:24:26;;;;;;;2.30;2.20;;;4.00;99.90;;;;;;4973701;28;20218;-90
2022/01/26 08:26:51;;;;;;;0.80;0.70;;;4.00;99.90;;;;;;4970176;28;20875;-89
2022/01/26 08:29:23;;;;;;;0.80;0.80;;;4.00;99.90;;;;;;4968851;28;20513;-87
2022/01/26 08:31:49;;;;;;;1.37;1.23;;;4.00;99.90;;;;;;4953078;28;20186;-86
2022/01/26 08:34:15;;;;;;;1.60;1.50;;;4.00;99.90;;;;;;4970936;28;20532;-88
2022/01/26 08:36:40;;;;;;;1.07;1.03;;;4.00;99.90;;;;;;4975130;28;20182;-86
2022/01/26 08:39:06;;;;;;;2.40;2.30;;;4.10;99.90;;;;;;4960929;28;20495;-88
2022/01/26 08:41:32;;;;;;;0.80;0.77;;;4.10;99.90;;;;;;4969796;28;20228;-86
2022/01/26 08:43:58;;;;;;;0.80;0.70;;;4.00;99.90;;;;;;4969694;28;20744;-87
2022/01/26 08:46:23;;;;;;;0.90;0.90;;;4.00;99.90;;;;;;4961981;28;20200;-87
2022/01/26 08:48:49;;;;;;;1.83;1.73;;;4.00;99.90;;;;;;4972012;28;20232;-89
2022/01/26 08:51:16;;;;;;;2.07;1.97;;;4.00;99.90;;;;;;4976532;28;20185;-89
2022/01/26 08:53:41;;;;;;;0.80;0.80;;;4.00;99.90;;;;;;4964836;28;20450;-89
2022/01/26 08:56:08;;;;;;;0.77;0.70;;;4.00;99.90;;;;;;4967767;28;20555;-89
2022/01/26 08:58:34;;;;;;;0.80;0.70;;;4.00;99.90;;;;;;4975263;28;20194;-88
2022/01/26 09:01:00;;;;;;;0.80;0.70;;;4.00;99.90;;;;;;4966538;28;20445;-89
2022/01/26 09:03:25;;;;;;;0.90;0.90;;;4.10;99.90;;;;;;4969953;28;20235;-88
2022/01/26 09:05:51;;;;;;;2.30;1.83;;;4.00;99.90;;;;;;4953397;28;21105;-90
2022/01/26 09:08:17;;;;;;;1.53;1.43;;;4.00;99.90;;;;;;4981154;28;20224;-89
2022/01/26 09:10:43;;;;;;;1.33;1.00;;;4.10;99.90;;;;;;4975459;28;20190;-89
2022/01/26 09:13:09;;;;;;;1.40;1.30;;;4.10;99.90;;;;;;4969414;28;20548;-88
2022/01/26 09:15:36;;;;;;;0.80;0.80;;;4.10;99.90;;;;;;4974102;28;20231;-89
2022/01/26 09:18:05;;;;;;;0.90;0.90;;;4.10;99.90;;;;;;4969014;28;20960;-89
2022/01/26 09:20:34;;;;;;;1.73;1.63;;;4.10;99.90;;;;;;4967434;28;20496;-85
2022/01/26 09:23:00;;;;;;;4.53;4.13;;;4.10;99.90;;;;;;4970355;28;20437;-85
2022/01/26 09:25:26;;;;;;;0.80;0.80;;;4.10;99.90;;;;;;4962475;28;20484;-85
2022/01/26 09:27:51;;;;;;;1.40;1.30;;;4.10;99.90;;;;;;4967312;28;20531;-83
2022/01/26 09:30:17;;;;;;;0.90;0.90;;;4.10;99.90;;;;;;4968217;28;20230;-85
2022/01/26 09:32:42;;;;;;;0.80;0.80;;;4.10;99.90;;;;;;4966870;28;20192;-85
2022/01/26 09:35:09;;;;;;;0.83;0.83;;;4.10;99.90;;;;;;4964267;28;20194;-85
2022/01/26 09:37:35;;;;;;;0.80;0.80;;;4.20;99.90;;;;;;4969449;28;20186;-84
2022/01/26 09:40:01;;;;;;;0.80;0.80;;;4.20;99.90;;;;;;4952677;28;20444;-86
2022/01/26 09:42:27;;;;;;;1.13;1.07;;;4.10;99.90;;;;;;4969451;28;20441;-84
2022/01/26 09:44:52;;;;;;;2.53;1.60;;;4.20;99.90;;;;;;4965320;28;20265;-86
2022/01/26 09:47:21;;;;;;;3.13;2.90;;;4.20;99.90;;;;;;4966446;28;20198;-88
2022/01/26 09:49:49;;;;;;;2.23;1.17;;;4.20;99.90;;;;;;4959453;28;20200;-88
2022/01/26 09:52:27;;;;;;;0.87;0.87;;;4.20;99.90;;;;;;4966208;28;20936;-85
2022/01/26 09:54:57;;;;;;;1.37;1.27;;;4.20;99.90;;;;;;4971434;28;20448;-85
2022/01/26 09:57:23;;;;;;;2.20;1.93;;;4.20;99.90;;;;;;4970091;28;20516;-85
2022/01/26 09:59:48;;;;;;;0.87;0.87;;;4.30;99.90;;;;;;4949767;28;20953;-84
2022/01/26 10:02:27;;;;;;;1.73;1.60;;;4.30;99.90;;;;;;4975948;28;20190;-86
2022/01/26 10:05:19;;;;;;;2.10;2.00;;;4.20;99.90;;;;;;4962302;28;20201;-86
2022/01/26 10:08:12;;;;;;;0.80;0.80;;;4.20;99.90;;;;;;4951626;28;20480;-85
2022/01/26 10:19:03;;;;;;;0.90;0.90;;;4.30;99.90;;;;;;4971615;28;20449;-87
2022/01/26 10:21:29;;;;;;;1.97;1.60;;;4.20;99.90;;;;;;4963991;28;20895;-85
2022/01/26 10:23:59;;;;;;;1.20;1.00;;;4.20;99.90;;;;;;4974713;28;20444;-86
2022/01/26 10:26:25;;;;;;;0.80;0.80;;;4.20;99.90;;;;;;4969034;28;20186;-86
2022/01/26 10:28:52;;;;;;;0.70;0.70;;;4.30;99.90;;;;;;4959587;28;20492;-86
2022/01/26 10:31:27;;;;;;;4.33;3.63;;;4.30;99.90;;;;;;4963875;28;20484;-85
2022/01/26 10:34:06;;;;;;;0.80;0.70;;;4.30;99.90;;;;;;4958056;28;20452;-85
2022/01/26 10:36:52;;;;;;;0.80;0.80;;;4.20;99.90;;;;;;4948058;28;20451;-85
2022/01/26 10:39:29;;;;;;;0.80;0.70;;;4.30;99.90;;;;;;4945492;28;20449;-85
2022/01/26 10:42:04;;;;;;;1.33;1.23;;;4.30;99.90;;;;;;4965768;28;20967;-85
2022/01/26 10:44:33;;;;;;;0.80;0.70;;;4.30;99.90;;;;;;4967070;28;20440;-84
2022/01/26 10:47:05;;;;;;;3.53;3.33;;;4.30;99.90;;;;;;4952847;28;20548;-85
2022/01/26 10:52:32;;;;;;;0.80;0.73;;;4.30;99.90;;;;;;4958859;28;20993;-84
2022/01/26 10:54:58;;;;;;;0.90;0.90;;;4.20;99.90;;;;;;4974408;28;20455;-84
2022/01/26 10:57:25;;;;;;;0.80;0.80;;;4.30;99.90;;;;;;4953583;28;20463;-84
2022/01/26 10:59:51;;;;;;;4.40;1.67;;;4.20;99.90;;;;;;4965935;28;20453;-84
2022/01/26 11:02:26;;;;;;;0.90;0.90;;;4.20;99.90;;;;;;4969350;28;20437;-85
2022/01/26 11:04:52;;;;;;;0.80;0.70;;;4.20;99.90;;;;;;4949331;28;20839;-84
2022/01/26 11:07:31;;;;;;;1.43;1.20;;;4.20;99.90;;;;;;4947098;28;20504;-84
2022/01/26 11:10:12;;;;;;;0.80;0.80;;;4.20;99.90;;;;;;4944150;28;20460;-85
2022/01/26 11:12:42;;;;;;;0.90;0.90;;;4.20;99.90;;;;;;4963369;28;20578;-84
2022/01/26 11:15:16;;;;;;;2.30;2.00;;;4.20;99.90;;;;;;4957528;28;20694;-84
2022/01/26 11:17:46;;;;;;;0.80;0.80;;;4.20;99.90;;;;;;4951267;28;20452;-85
2022/01/26 11:20:30;;;;;;;0.97;0.93;;;4.20;99.90;;;;;;4968151;28;20528;-83
2022/01/26 11:22:58;;;;;;;1.17;1.07;;;4.20;99.90;;;;;;4961393;28;20442;-83
2022/01/26 11:25:28;;;;;;;4.63;1.23;;;4.20;99.90;;;;;;4977229;28;20620;-84
2022/01/26 11:28:15;;;;;;;0.90;0.77;;;4.30;99.90;;;;;;4964294;28;20477;-86
2022/01/26 11:31:17;;;;;;;3.00;2.90;;;4.20;99.90;;;;;;4952298;28;20533;-85
2022/01/26 11:33:47;;;;;;;1.47;1.40;;;4.20;99.90;;;;;;4922689;28;20536;-85
2022/01/26 11:36:16;;;;;;;1.20;1.10;;;4.20;99.90;;;;;;4928920;28;20499;-87
2022/01/26 11:39:15;;;;;;;0.80;0.80;;;4.20;99.90;;;;;;4925609;28;20476;-86
2022/01/26 11:42:18;;;;;;;2.30;1.53;;;4.20;99.90;;;;;;4937714;28;20530;-84
2022/01/26 11:45:07;;;;;;;0.77;0.73;;;4.20;99.90;;;;;;4947197;28;20545;-85
2022/01/26 11:47:35;;;;;;;0.80;0.70;;;4.20;99.90;;;;;;4945549;28;20965;-84
2022/01/26 11:50:19;;;;;;;2.07;1.30;;;4.20;99.90;;;;;;4939915;28;20460;-84
2022/01/26 11:52:58;;;;;;;0.80;0.70;;;4.20;99.90;;;;;;4954506;28;20454;-84
2022/01/26 11:55:40;;;;;;;0.80;0.80;;;4.20;99.90;;;;;;4952304;28;20458;-85
2022/01/26 11:58:34;;;;;;;1.00;1.00;;;4.20;99.90;;;;;;4948996;28;20448;-83
2022/01/26 12:01:28;;;;;;;4.00;3.70;;;4.10;99.90;;;;;;4959540;28;20428;-85
2022/01/26 12:04:01;;;;;;;1.27;1.17;;;4.10;99.90;;;;;;4953171;28;20952;-85
2022/01/26 12:06:29;;;;;;;1.63;1.53;;;4.10;99.90;;;;;;4948427;28;20446;-84
2022/01/26 12:08:58;;;;;;;1.10;1.10;;;4.10;99.90;;;;;;4968219;28;20835;-85
2022/01/26 12:11:24;;;;;;;2.60;2.20;;;4.20;99.90;;;;;;4951008;28;20946;-86
2022/01/26 12:14:01;;;;;;;0.80;0.80;;;4.20;99.90;;;;;;4951341;28;20441;-86
2022/01/26 12:16:39;;;;;;;1.67;1.57;;;4.20;99.90;;;;;;4936893;28;20460;-88
2022/01/26 12:35:55;;;;;;;0.80;0.80;;;4.20;99.90;;;;;;4946168;28;20446;-88
2022/01/26 12:38:41;;;;;;;0.80;0.70;;;4.20;99.90;;;;;;4937218;28;20443;-89
2022/01/26 12:43:56;;;;;;;1.83;1.73;;;4.20;99.90;;;;;;4949826;28;21254;-88
2022/01/26 12:46:22;;;;;;;1.47;1.27;;;4.20;99.90;;;;;;4954970;28;20441;-88
2022/01/26 12:48:57;;;;;;;2.37;2.17;;;4.30;99.90;;;;;;4952606;28;20489;-87
2022/01/26 12:51:24;;;;;;;1.10;1.03;;;4.30;99.90;;;;;;4938383;28;20566;-88
2022/01/26 12:53:55;;;;;;;2.70;2.60;;;4.30;99.90;;;;;;4951139;28;20484;-87
2022/01/26 12:56:25;;;;;;;0.83;0.83;;;4.30;99.90;;;;;;4952992;28;20494;-88
2022/01/26 12:59:03;;;;;;;1.20;1.13;;;4.30;99.90;;;;;;4949388;28;20449;-89
2022/01/26 13:01:29;;;;;;;4.50;1.90;;;4.40;99.90;;;;;;4943644;28;20441;-89
2022/01/26 13:04:00;;;;;;;1.03;1.03;;;4.40;99.90;;;;;;4953747;28;20450;-90
2022/01/26 13:06:28;;;;;;;0.90;0.90;;;4.40;99.90;;;;;;4948125;28;20799;-89
2022/01/26 13:08:56;;;;;;;0.80;0.70;;;4.40;99.90;;;;;;4948663;28;20705;-89
2022/01/26 13:11:23;;;;;;;3.07;1.63;;;4.40;99.90;;;;;;4945424;28;20450;-87
2022/01/26 13:13:48;;;;;;;0.80;0.70;;;4.50;99.90;;;;;;4952453;28;20558;-89
2022/01/26 13:16:23;;;;;;;1.33;1.23;;;4.50;99.90;;;;;;4954961;28;20894;-89
2022/01/26 13:19:17;;;;;;;1.53;1.43;;;4.50;99.90;;;;;;4953251;28;20198;-89
2022/01/26 13:22:01;;;;;;;0.80;0.70;;;4.50;99.90;;;;;;4953523;28;20442;-88
2022/01/26 13:27:15;;;;;;;9.03;1.93;;;4.50;99.90;;;;;;4954115;28;20454;-89
2022/01/26 13:30:32;;;;;;;2.63;2.50;;;4.60;99.90;;;;;;4942067;28;20582;-89
2022/01/26 13:35:13;;;;;;;2.17;2.07;;;4.60;99.90;;;;;;4973619;28;20463;-89
2022/01/26 13:40:50;;;;;;;0.90;0.90;;;4.50;99.90;;;;;;4929055;28;20524;-88
2022/01/26 13:48:52;;;;;;;1.43;1.17;;;4.50;99.90;;;;;;4971700;28;20472;-89
2022/01/26 13:51:37;;;;;;;1.37;1.27;;;4.40;99.90;;;;;;4969877;28;20444;-88
2022/01/26 13:59:38;;;;;;;0.80;0.70;;;4.40;99.90;;;;;;4964578;28;20450;-90
2022/01/26 14:02:03;;;;;;;0.77;0.70;;;4.40;99.90;;;;;;4958273;28;20487;-87
2022/01/26 14:04:29;;;;;;;1.53;1.43;;;4.40;99.90;;;;;;4968548;28;20449;-88
2022/01/26 14:06:54;;;;;;;1.50;1.40;;;4.40;99.90;;;;;;4946790;28;20193;-89
2022/01/26 14:09:20;;;;;;;2.13;1.47;;;4.50;99.90;;;;;;4963585;28;20666;-90
2022/01/26 14:11:52;;;;;;;1.13;1.03;;;4.50;99.90;;;;;;4962521;28;20201;-90
2022/01/26 14:14:54;;;;;;;0.80;0.80;;;4.40;99.90;;;;;;4943582;28;20626;-90
2022/01/26 14:17:59;;;;;;;2.37;2.27;;;4.50;99.90;;;;;;4961003;28;20421;-87
2022/01/26 14:25:40;;;;;;;3.70;3.50;;;4.50;99.90;;;;;;4981586;28;20445;-88
2022/01/26 14:28:12;;;;;;;0.80;0.70;;;4.40;99.90;;;;;;4961142;28;20524;-88
2022/01/26 14:31:05;;;;;;;2.90;2.80;;;4.50;99.90;;;;;;4978835;28;20563;-88
2022/01/26 15:29:52;;;;;;;1.10;1.03;;;4.50;99.90;;;;;;4968308;28;20445;-88
2022/01/26 15:40:55;;;;;;;0.80;0.70;;;4.60;99.90;;;;;;4968386;28;20449;-86
2022/01/26 15:49:04;;;;;;;0.80;0.70;;;4.60;99.90;;;;;;4965111;28;20588;-86
2022/01/26 15:59:35;;;;;;;0.80;0.80;;;4.70;99.90;;;;;;4965076;28;20452;-86
2022/01/26 16:16:33;;;;;;;0.97;0.93;;;4.80;99.90;;;;;;4968454;28;20449;-84
2022/01/26 16:19:40;;;;;;;1.50;1.40;;;4.80;99.90;;;;;;4964985;28;20922;-84
2022/01/26 16:21:19;;;;;;;2.13;1.47;;;4.80;99.90;;;;;;4969509;28;20422;-86
2022/01/26 17:24:30;;;;;;;0.90;0.80;;;5.00;99.90;;;;;;4965268;28;20440;-87
2022/01/26 17:43:16;;;;;;;0.80;0.80;;;5.10;99.90;;;;;;4945267;28;20552;-87
2022/01/26 17:46:38;;;;;;;0.80;0.70;;;5.20;99.90;;;;;;4969069;28;21015;-87
2022/01/26 18:16:26;;;;;;;2.30;2.20;;;5.40;99.90;;;;;;4966166;28;20445;-89
2022/01/26 18:40:52;;;;;;;0.80;0.70;;;5.50;99.90;;;;;;4958315;28;20469;-88
2022/01/26 18:46:47;;;;;;;0.80;0.70;;;5.50;99.90;;;;;;4942134;28;20936;-91
2022/01/26 18:49:13;;;;;;;0.87;0.87;;;5.50;99.90;;;;;;4975490;28;20484;-88
2022/01/26 18:51:56;;;;;;;0.80;0.70;;;5.50;99.90;;;;;;4972674;28;20536;-89
2022/01/26 18:54:34;;;;;;;2.60;1.90;;;5.50;99.90;;;;;;4968587;28;20483;-90
2022/01/26 18:57:03;;;;;;;1.43;1.17;;;5.50;99.90;;;;;;4952388;28;20443;-90
2022/01/26 18:59:28;;;;;;;1.10;1.00;;;5.50;99.90;;;;;;4966423;28;20542;-89
2022/01/26 19:01:56;;;;;;;0.77;0.67;;;5.50;99.90;;;;;;4941913;28;20608;-91
2022/01/26 19:04:30;;;;;;;1.83;1.73;;;5.50;99.90;;;;;;4955105;28;20213;-91
2022/01/26 19:06:57;;;;;;;0.90;0.90;;;5.50;99.90;;;;;;4970731;28;20523;-90
2022/01/26 19:09:27;;;;;;;1.63;1.53;;;5.50;99.90;;;;;;4972130;28;20485;-90
2022/01/26 19:11:53;;;;;;;1.17;0.90;;;5.50;99.90;;;;;;4959173;28;20532;-89
2022/01/26 19:14:24;;;;;;;0.90;0.83;;;5.50;99.90;;;;;;4968840;28;20449;-89